sensor_id;sensor_type;location;lat;lon;timestamp;temperature;humidity
14775;DHT22;7479;47.042;15.160;2023-06-19T06:07:49;20.20;99.90
14775;DHT22;7479;47.042;15.160;2023-06-19T06:12:42;20.50;99.90
14775;DHT22;7479;47.042;15.160;2023-06-19T06:17:35;20.70;99.90
14775;DHT22;7479;47.042;15.160;2023-06-19T06:22:29;20.90;99.90
14775;DHT22;7479;47.042;15.160;2023-06-19T06:27:23;21.10;99.90
14775;DHT22;7479;47.042;15.160;2023-06-19T06:32:18;21.20;99.90
14775;DHT22;7479;47.042;15.160;2023-06-19T06:37:11;21.50;99.90
14775;DHT22;7479;47.042;15.160;2023-06-19T06:42:05;21.70;99.90
14775;DHT22;7479;47.042;15.160;2023-06-19T06:47:00;21.90;99.90
14775;DHT22;7479;47.042;15.160;2023-06-19T06:51:54;22.10;99.90
14775;DHT22;7479;47.042;15.160;2023-06-19T06:56:49;22.30;99.90
14775;DHT22;7479;47.042;15.160;2023-06-19T07:01:44;22.50;99.90
14775;DHT22;7479;47.042;15.160;2023-06-19T07:06:39;22.80;99.90
14775;DHT22;7479;47.042;15.160;2023-06-19T07:11:32;23.10;99.90
14775;DHT22;7479;47.042;15.160;2023-06-19T07:16:26;23.30;99.90
14775;DHT22;7479;47.042;15.160;2023-06-19T07:21:19;23.60;99.90
14775;DHT22;7479;47.042;15.160;2023-06-19T07:26:14;23.80;99.90
14775;DHT22;7479;47.042;15.160;2023-06-19T07:31:08;23.90;99.90
14775;DHT22;7479;47.042;15.160;2023-06-19T07:36:01;24.10;99.90
14775;DHT22;7479;47.042;15.160;2023-06-19T07:40:55;24.30;99.90
14775;DHT22;7479;47.042;15.160;2023-06-19T07:45:50;24.40;99.90
14775;DHT22;7479;47.042;15.160;2023-06-19T07:50:43;24.60;99.90
14775;DHT22;7479;47.042;15.160;2023-06-19T07:55:38;24.80;99.90
14775;DHT22;7479;47.042;15.160;2023-06-19T08:00:35;25.00;99.50
14775;DHT22;7479;47.042;15.160;2023-06-19T08:05:29;25.10;98.50
14775;DHT22;7479;47.042;15.160;2023-06-19T08:10:23;25.30;99.40
14775;DHT22;7479;47.042;15.160;2023-06-19T08:15:16;25.50;98.30
14775;DHT22;7479;47.042;15.160;2023-06-19T08:20:10;25.70;98.30
14775;DHT22;7479;47.042;15.160;2023-06-19T08:25:06;25.90;97.60
14775;DHT22;7479;47.042;15.160;2023-06-19T08:29:59;26.00;97.10
14775;DHT22;7479;47.042;15.160;2023-06-19T08:34:52;26.30;98.30
14775;DHT22;7479;47.042;15.160;2023-06-19T08:39:46;26.50;95.00
14775;DHT22;7479;47.042;15.160;2023-06-19T08:44:40;26.60;94.90
14775;DHT22;7479;47.042;15.160;2023-06-19T08:49:35;26.80;94.90
14775;DHT22;7479;47.042;15.160;2023-06-19T08:54:29;27.10;96.30
14775;DHT22;7479;47.042;15.160;2023-06-19T08:59:22;27.30;94.10
14775;DHT22;7479;47.042;15.160;2023-06-19T09:04:20;27.40;94.40
14775;DHT22;7479;47.042;15.160;2023-06-19T09:09:14;27.50;93.10
14775;DHT22;7479;47.042;15.160;2023-06-19T09:14:08;27.70;93.50
14775;DHT22;7479;47.042;15.160;2023-06-19T09:19:01;28.00;93.00
14775;DHT22;7479;47.042;15.160;2023-06-19T09:24:02;28.40;92.10
14775;DHT22;7479;47.042;15.160;2023-06-19T09:28:56;28.70;91.50
14775;DHT22;7479;47.042;15.160;2023-06-19T09:33:49;29.20;91.40
14775;DHT22;7479;47.042;15.160;2023-06-19T09:38:43;29.50;91.40
14775;DHT22;7479;47.042;15.160;2023-06-19T09:43:42;30.10;89.10
14775;DHT22;7479;47.042;15.160;2023-06-19T09:48:42;30.40;85.70
14775;DHT22;7479;47.042;15.160;2023-06-19T09:53:35;30.20;83.40
14775;DHT22;7479;47.042;15.160;2023-06-19T09:58:29;29.80;83.30
14775;DHT22;7479;47.042;15.160;2023-06-19T10:03:31;29.70;86.30
14775;DHT22;7479;47.042;15.160;2023-06-19T10:08:29;29.60;84.70
14775;DHT22;7479;47.042;15.160;2023-06-19T10:13:31;29.40;84.10
14775;DHT22;7479;47.042;15.160;2023-06-19T10:18:24;29.40;85.10
14775;DHT22;7479;47.042;15.160;2023-06-19T10:23:21;29.40;83.90
14775;DHT22;7479;47.042;15.160;2023-06-19T10:28:16;29.50;83.00
14775;DHT22;7479;47.042;15.160;2023-06-19T10:33:10;29.60;85.40
14775;DHT22;7479;47.042;15.160;2023-06-19T10:38:03;29.70;83.70
14775;DHT22;7479;47.042;15.160;2023-06-19T10:42:58;29.80;83.90
14775;DHT22;7479;47.042;15.160;2023-06-19T10:47:52;30.60;82.80
14775;DHT22;7479;47.042;15.160;2023-06-19T10:52:46;30.80;80.20
14775;DHT22;7479;47.042;15.160;2023-06-19T10:57:44;31.30;80.20
14775;DHT22;7479;47.042;15.160;2023-06-19T11:02:40;31.90;76.80
14775;DHT22;7479;47.042;15.160;2023-06-19T11:07:35;31.60;74.60
14775;DHT22;7479;47.042;15.160;2023-06-19T11:12:29;31.70;76.60
14775;DHT22;7479;47.042;15.160;2023-06-19T11:17:22;32.30;75.40
14775;DHT22;7479;47.042;15.160;2023-06-19T11:22:17;32.30;74.10
14775;DHT22;7479;47.042;15.160;2023-06-19T11:27:17;32.10;75.60
14775;DHT22;7479;47.042;15.160;2023-06-19T11:32:14;32.70;74.70
14775;DHT22;7479;47.042;15.160;2023-06-19T11:37:14;33.10;71.20
14775;DHT22;7479;47.042;15.160;2023-06-19T11:42:11;33.50;70.90
14775;DHT22;7479;47.042;15.160;2023-06-19T11:47:07;33.80;70.00
14775;DHT22;7479;47.042;15.160;2023-06-19T11:52:04;33.80;68.00
14775;DHT22;7479;47.042;15.160;2023-06-19T11:56:58;34.10;68.60
14775;DHT22;7479;47.042;15.160;2023-06-19T12:01:52;34.60;67.20
14775;DHT22;7479;47.042;15.160;2023-06-19T12:06:48;34.60;66.20
14775;DHT22;7479;47.042;15.160;2023-06-19T12:11:41;34.60;67.80
14775;DHT22;7479;47.042;15.160;2023-06-19T12:16:35;34.90;63.60
14775;DHT22;7479;47.042;15.160;2023-06-19T12:21:30;35.10;62.80
14775;DHT22;7479;47.042;15.160;2023-06-19T12:26:30;35.30;60.80
14775;DHT22;7479;47.042;15.160;2023-06-19T12:31:29;35.20;62.40
14775;DHT22;7479;47.042;15.160;2023-06-19T12:36:22;35.20;62.10
14775;DHT22;7479;47.042;15.160;2023-06-19T12:41:17;35.30;61.80
14775;DHT22;7479;47.042;15.160;2023-06-19T12:46:10;35.80;60.10
14775;DHT22;7479;47.042;15.160;2023-06-19T12:51:04;35.90;58.00
14775;DHT22;7479;47.042;15.160;2023-06-19T12:55:58;35.90;56.40
14775;DHT22;7479;47.042;15.160;2023-06-19T13:00:58;36.00;55.20
14775;DHT22;7479;47.042;15.160;2023-06-19T13:05:52;36.10;55.90
14775;DHT22;7479;47.042;15.160;2023-06-19T13:10:47;35.70;57.30
14775;DHT22;7479;47.042;15.160;2023-06-19T13:15:41;36.10;56.00
14775;DHT22;7479;47.042;15.160;2023-06-19T13:20:36;36.40;53.30
14775;DHT22;7479;47.042;15.160;2023-06-19T13:25:29;36.60;53.40
14775;DHT22;7479;47.042;15.160;2023-06-19T13:30:24;36.90;53.40
14775;DHT22;7479;47.042;15.160;2023-06-19T13:35:18;36.80;54.30
14775;DHT22;7479;47.042;15.160;2023-06-19T13:40:14;36.10;54.20
14775;DHT22;7479;47.042;15.160;2023-06-19T13:45:08;34.40;57.50
14775;DHT22;7479;47.042;15.160;2023-06-19T13:50:02;34.40;57.70
14775;DHT22;7479;47.042;15.160;2023-06-19T13:54:55;33.90;58.50
14775;DHT22;7479;47.042;15.160;2023-06-19T13:59:50;33.70;58.90
14775;DHT22;7479;47.042;15.160;2023-06-19T14:04:43;33.50;58.80
14775;DHT22;7479;47.042;15.160;2023-06-19T14:09:37;33.00;60.90
14775;DHT22;7479;47.042;15.160;2023-06-19T14:14:31;33.50;59.70
14775;DHT22;7479;47.042;15.160;2023-06-19T14:19:26;34.00;59.20
14775;DHT22;7479;47.042;15.160;2023-06-19T14:24:20;33.80;57.50
14775;DHT22;7479;47.042;15.160;2023-06-19T14:29:15;33.00;58.40
14775;DHT22;7479;47.042;15.160;2023-06-19T14:34:10;32.60;58.50
14775;DHT22;7479;47.042;15.160;2023-06-19T14:39:05;33.30;59.60
14775;DHT22;7479;47.042;15.160;2023-06-19T14:43:59;34.00;57.50
14775;DHT22;7479;47.042;15.160;2023-06-19T14:48:52;33.80;60.20
14775;DHT22;7479;47.042;15.160;2023-06-19T14:53:45;33.40;59.30
14775;DHT22;7479;47.042;15.160;2023-06-19T14:58:41;32.90;60.50
14775;DHT22;7479;47.042;15.160;2023-06-19T15:03:34;32.40;61.40
14775;DHT22;7479;47.042;15.160;2023-06-19T15:08:28;32.00;64.20
14775;DHT22;7479;47.042;15.160;2023-06-19T15:13:23;31.90;66.20
14775;DHT22;7479;47.042;15.160;2023-06-19T15:18:18;31.90;66.70
14775;DHT22;7479;47.042;15.160;2023-06-19T15:23:11;31.80;66.30
14775;DHT22;7479;47.042;15.160;2023-06-19T15:28:05;31.80;64.90
14775;DHT22;7479;47.042;15.160;2023-06-19T15:32:58;31.70;64.40
14775;DHT22;7479;47.042;15.160;2023-06-19T15:37:53;31.20;61.60
14775;DHT22;7479;47.042;15.160;2023-06-19T15:42:50;31.10;62.30
14775;DHT22;7479;47.042;15.160;2023-06-19T15:47:43;31.10;61.30
14775;DHT22;7479;47.042;15.160;2023-06-19T15:52:37;31.50;61.70
14775;DHT22;7479;47.042;15.160;2023-06-19T15:57:32;31.90;64.50
14775;DHT22;7479;47.042;15.160;2023-06-19T16:02:26;31.70;64.90
14775;DHT22;7479;47.042;15.160;2023-06-19T16:07:20;31.40;66.30
14775;DHT22;7479;47.042;15.160;2023-06-19T16:12:14;30.90;67.00
14775;DHT22;7479;47.042;15.160;2023-06-19T16:17:08;30.40;67.90
14775;DHT22;7479;47.042;15.160;2023-06-19T16:22:02;30.20;68.90
14775;DHT22;7479;47.042;15.160;2023-06-19T16:26:55;30.20;67.80
14775;DHT22;7479;47.042;15.160;2023-06-19T16:31:49;30.00;69.10
14775;DHT22;7479;47.042;15.160;2023-06-19T16:36:57;29.70;70.00
14775;DHT22;7479;47.042;15.160;2023-06-19T16:41:50;29.50;71.00
14775;DHT22;7479;47.042;15.160;2023-06-19T16:46:43;29.20;71.10
14775;DHT22;7479;47.042;15.160;2023-06-19T16:51:37;28.90;71.80
14775;DHT22;7479;47.042;15.160;2023-06-19T16:56:31;28.60;71.80
14775;DHT22;7479;47.042;15.160;2023-06-19T17:01:25;28.50;73.30
14775;DHT22;7479;47.042;15.160;2023-06-19T17:06:18;28.30;73.90
14775;DHT22;7479;47.042;15.160;2023-06-19T17:11:12;28.20;75.00
14775;DHT22;7479;47.042;15.160;2023-06-19T17:16:13;28.10;74.70
14775;DHT22;7479;47.042;15.160;2023-06-19T17:21:06;28.00;75.80
14775;DHT22;7479;47.042;15.160;2023-06-19T17:25:59;27.80;77.00
14775;DHT22;7479;47.042;15.160;2023-06-19T17:30:53;27.70;77.30
14775;DHT22;7479;47.042;15.160;2023-06-19T17:35:47;27.70;79.30
14775;DHT22;7479;47.042;15.160;2023-06-19T17:40:41;27.50;81.00
14775;DHT22;7479;47.042;15.160;2023-06-19T17:45:34;27.50;80.80
14775;DHT22;7479;47.042;15.160;2023-06-19T17:50:27;27.50;79.90
14775;DHT22;7479;47.042;15.160;2023-06-19T17:55:22;27.50;79.60
14775;DHT22;7479;47.042;15.160;2023-06-19T18:00:16;27.50;80.00
14775;DHT22;7479;47.042;15.160;2023-06-19T18:05:09;27.60;80.30
14775;DHT22;7479;47.042;15.160;2023-06-19T18:10:03;27.80;80.70
14775;DHT22;7479;47.042;15.160;2023-06-19T18:14:58;27.70;83.90
14775;DHT22;7479;47.042;15.160;2023-06-19T18:19:52;27.60;85.30
14775;DHT22;7479;47.042;15.160;2023-06-19T18:24:45;27.70;86.50
14775;DHT22;7479;47.042;15.160;2023-06-19T18:29:39;27.70;86.70
14775;DHT22;7479;47.042;15.160;2023-06-19T18:34:34;27.40;87.00
14775;DHT22;7479;47.042;15.160;2023-06-19T18:39:27;26.80;90.70
14775;DHT22;7479;47.042;15.160;2023-06-19T18:44:20;26.40;92.40
14775;DHT22;7479;47.042;15.160;2023-06-19T18:49:14;26.00;93.50
14775;DHT22;7479;47.042;15.160;2023-06-19T18:54:09;25.70;94.40
14775;DHT22;7479;47.042;15.160;2023-06-19T18:59:02;25.60;95.00
14775;DHT22;7479;47.042;15.160;2023-06-19T19:03:55;25.30;95.70
14775;DHT22;7479;47.042;15.160;2023-06-19T19:08:49;25.10;96.20
14775;DHT22;7479;47.042;15.160;2023-06-19T19:13:49;24.90;96.50
14775;DHT22;7479;47.042;15.160;2023-06-19T19:18:42;24.50;98.00
14775;DHT22;7479;47.042;15.160;2023-06-19T19:23:37;24.30;99.90
14775;DHT22;7479;47.042;15.160;2023-06-19T19:28:30;24.10;99.90
14775;DHT22;7479;47.042;15.160;2023-06-19T19:33:25;23.90;99.90
14775;DHT22;7479;47.042;15.160;2023-06-19T19:38:18;23.80;99.90
14775;DHT22;7479;47.042;15.160;2023-06-19T19:43:12;23.70;99.90
14775;DHT22;7479;47.042;15.160;2023-06-19T19:48:06;23.50;99.90
14775;DHT22;7479;47.042;15.160;2023-06-19T19:53:01;23.40;99.90
14775;DHT22;7479;47.042;15.160;2023-06-19T19:57:54;23.30;99.90
14775;DHT22;7479;47.042;15.160;2023-06-19T20:02:50;23.20;99.90
14775;DHT22;7479;47.042;15.160;2023-06-19T20:07:44;23.10;99.90
14775;DHT22;7479;47.042;15.160;2023-06-19T20:12:38;23.00;99.90
14775;DHT22;7479;47.042;15.160;2023-06-19T20:17:32;22.90;99.90
14775;DHT22;7479;47.042;15.160;2023-06-19T20:22:25;22.70;99.90
14775;DHT22;7479;47.042;15.160;2023-06-19T20:27:18;22.60;99.90
14775;DHT22;7479;47.042;15.160;2023-06-19T20:32:15;22.40;99.90
14775;DHT22;7479;47.042;15.160;2023-06-19T20:37:08;22.30;99.90
14775;DHT22;7479;47.042;15.160;2023-06-19T20:42:01;22.20;99.90
14775;DHT22;7479;47.042;15.160;2023-06-19T20:46:55;22.00;99.90
14775;DHT22;7479;47.042;15.160;2023-06-19T20:51:53;21.90;99.90
14775;DHT22;7479;47.042;15.160;2023-06-19T20:56:47;21.80;99.90
14775;DHT22;7479;47.042;15.160;2023-06-19T21:01:40;21.70;99.90
14775;DHT22;7479;47.042;15.160;2023-06-19T21:06:34;21.70;99.90
14775;DHT22;7479;47.042;15.160;2023-06-19T21:11:28;21.50;99.90
14775;DHT22;7479;47.042;15.160;2023-06-19T21:16:22;21.40;99.90
14775;DHT22;7479;47.042;15.160;2023-06-19T21:21:16;21.30;99.90
14775;DHT22;7479;47.042;15.160;2023-06-19T21:26:10;21.30;99.90
14775;DHT22;7479;47.042;15.160;2023-06-19T21:31:05;21.20;99.90
